Time;durP1;ratioP1;P1;durP2;ratioP2;P2;SDS_P1;SDS_P2;PMS_P1;PMS_P2;Temp;Humidity;BMP_temperature;BMP_pressure;BME280_temperature;BME280_humidity;BME280_pressure;Samples;Min_cycle;Max_cycle;Signal;HPM_P1;HPM_P2
2023/10/05 00:00:27;;;;;;;;;;;;;;;;;;2049503;28;20013;-95
2023/10/05 00:01:24;;;;;;;;;;;;;;;;;;2059593;28;19933;-95
2023/10/05 00:02:24;;;;;;;;;;;;;;;;;;2057111;28;19925;-95
2023/10/05 00:03:25;;;;;;;;;;;;;;;;;;2049294;28;20393;-95
2023/10/05 00:04:26;;;;;;;;;;;;;;;;;;2048964;28;20132;-93
2023/10/05 00:05:27;;;;;;;;;;;;;;;;;;2057086;28;20008;-95
2023/10/05 00:06:27;;;;;;;;;;;;;;;;;;2048987;28;19985;-95
2023/10/05 00:07:28;;;;;;;;;;;;;;;;;;2048780;29;19917;-94
2023/10/05 00:08:28;;;;;;;;;;;;;;;;;;2049097;28;19946;-95
2023/10/05 00:09:29;;;;;;;;;;;;;;;;;;2048975;28;20005;-95
2023/10/05 00:10:30;;;;;;;;;;;;;;;;;;2049051;29;19914;-96
2023/10/05 00:11:30;;;;;;;;;;;;;;;;;;2057129;28;19996;-96
2023/10/05 00:12:30;;;;;;;;;;;;;;;;;;2048941;28;19914;-96
2023/10/05 00:13:32;;;;;;;;;;;;;;;;;;2049096;28;19917;-95
2023/10/05 00:14:35;;;;;;;;;;;;;;;;;;2049974;28;20018;-95
2023/10/05 00:15:38;;;;;;;;;;;;;;;;;;2054003;28;19914;-93
2023/10/05 00:16:39;;;;;;;;;;;;;;;;;;2054488;28;19934;-93
2023/10/05 00:17:39;;;;;;;;;;;;;;;;;;2064332;28;19906;-92
2023/10/05 00:18:39;;;;;;;;;;;;;;;;;;2055730;28;19994;-93
2023/10/05 00:19:40;;;;;;;;;;;;;;;;;;2051979;28;19914;-93
2023/10/05 00:20:41;;;;;;;;;;;;;;;;;;2057168;28;20994;-94
2023/10/05 00:21:50;;;;;;;;;;;;;;;;;;2049426;28;19926;-94
2023/10/05 00:22:51;;;;;;;;;;;;;;;;;;2050198;28;19941;-95
2023/10/05 00:23:56;;;;;;;;;;;;;;;;;;2057224;28;19918;-94
2023/10/05 00:24:57;;;;;;;;;;;;;;;;;;2050411;28;19924;-96
2023/10/05 00:25:57;;;;;;;;;;;;;;;;;;2049983;28;19925;-95
2023/10/05 00:26:58;;;;;;;;;;;;;;;;;;2061139;28;19918;-92
2023/10/05 00:28:07;;;;;;;;;;;;;;;;;;1716421;28;10001818;-94
2023/10/05 00:29:15;;;;;;;;;;;;;;;;;;2050445;28;19926;-95
2023/10/05 00:30:17;;;;;;;;;;;;;;;;;;2049995;28;19918;-95
2023/10/05 00:31:23;;;;;;;;;;;;;;;;;;2057027;28;19965;-95
2023/10/05 00:32:47;;;;;;;;;;;;;;;;;;2050115;28;19965;-95
2023/10/05 00:33:47;;;;;;;;;;;;;;;;;;2060962;28;19925;-95
2023/10/05 00:34:52;;;;;;;;;;;;;;;;;;2058643;28;19918;-95
2023/10/05 00:35:52;;;;;;;;;;;;;;;;;;1013027;28;10001102;-95
2023/10/05 00:36:59;;;;;;;;;;;;;;;;;;2058650;28;19922;-95
2023/10/05 00:38:12;;;;;;;;;;;;;;;;;;2059219;28;19922;-96
2023/10/05 00:39:15;;;;;;;;;;;;;;;;;;2052550;28;19919;-95
2023/10/05 00:40:36;;;;;;;;;;;;;;;;;;2050944;28;19925;-95
2023/10/05 00:41:37;;;;;;;;;;;;;;;;;;1715362;28;10002757;-95
2023/10/05 00:42:37;;;;;;;;;;;;;;;;;;2051096;28;19930;-96
2023/10/05 00:43:38;;;;;;;;;;;;;;;;;;2053448;28;20013;-94
2023/10/05 00:44:41;;;;;;;;;;;;;;;;;;2061717;28;20396;-94
2023/10/05 00:45:46;;;;;;;;;;;;;;;;;;2051418;28;19933;-95
2023/10/05 00:46:50;;;;;;;;;;;;;;;;;;2051402;28;19958;-95
2023/10/05 00:47:51;;;;;;;;;;;;;;;;;;2058436;28;20305;-95
2023/10/05 00:49:04;;;;;;;;;;;;;;;;;;2050843;28;20424;-95
2023/10/05 00:50:04;;;;;;;;;;;;;;;;;;2052021;28;20053;-95
2023/10/05 00:51:17;;;;;;;;;;;;;;;;;;2059737;28;19918;-94
2023/10/05 00:52:28;;;;;;;;;;;;;;;;;;2062797;28;19918;-95
2023/10/05 00:53:29;;;;;;;;;;;;;;;;;;2054890;28;19997;-94
2023/10/05 00:54:31;;;;;;;;;;;;;;;;;;2054484;28;19910;-95
2023/10/05 00:55:31;;;;;;;;;;;;;;;;;;2061096;28;19913;-95
2023/10/05 00:56:35;;;;;;;;;;;;;;;;;;2050635;28;19911;-95
2023/10/05 00:57:36;;;;;;;;;;;;;;;;;;2051059;28;20405;-95
2023/10/05 00:58:48;;;;;;;;;;;;;;;;;;2051413;28;19902;-96
2023/10/05 01:01:16;;;;;;;;;;;;;;;;;;2030021;28;20023;-95
2023/10/05 01:02:20;;;;;;;;;;;;;;;;;;2058700;28;20401;-95
2023/10/05 01:03:33;;;;;;;;;;;;;;;;;;2051034;28;20057;-95
2023/10/05 01:06:27;;;;;;;;;;;;;;;;;;2059994;28;19925;-94
2023/10/05 01:07:18;;;;;;;;;;;;;;;;;;2062948;28;19926;-94
2023/10/05 01:08:23;;;;;;;;;;;;;;;;;;2059646;28;19918;-96
2023/10/05 01:10:54;;;;;;;;;;;;;;;;;;2060979;28;19952;-95
2023/10/05 01:12:02;;;;;;;;;;;;;;;;;;2060472;28;19922;-96
2023/10/05 01:13:20;;;;;;;;;;;;;;;;;;2052863;28;19925;-96
2023/10/05 01:14:24;;;;;;;;;;;;;;;;;;2058738;28;19917;-95
2023/10/05 01:15:32;;;;;;;;;;;;;;;;;;2051056;28;20018;-96
2023/10/05 01:16:33;;;;;;;;;;;;;;;;;;2051965;28;19921;-95
2023/10/05 01:17:36;;;;;;;;;;;;;;;;;;2058236;28;19910;-96
2023/10/05 01:18:37;;;;;;;;;;;;;;;;;;2058129;28;19910;-95
2023/10/05 01:19:39;;;;;;;;;;;;;;;;;;2051193;28;19910;-95
2023/10/05 01:20:43;;;;;;;;;;;;;;;;;;2050586;28;19917;-94
2023/10/05 01:21:44;;;;;;;;;;;;;;;;;;2050710;28;19926;-95
2023/10/05 01:22:45;;;;;;;;;;;;;;;;;;2050460;28;19961;-95
2023/10/05 01:23:48;;;;;;;;;;;;;;;;;;2058272;28;19922;-95
2023/10/05 01:24:49;;;;;;;;;;;;;;;;;;2058603;28;19914;-95
2023/10/05 01:25:50;;;;;;;;;;;;;;;;;;2050431;28;20012;-95
2023/10/05 01:26:50;;;;;;;;;;;;;;;;;;2050448;28;19914;-95
2023/10/05 01:27:51;;;;;;;;;;;;;;;;;;2058140;28;19993;-95
2023/10/05 01:28:51;;;;;;;;;;;;;;;;;;2050333;28;20021;-95
2023/10/05 01:29:52;;;;;;;;;;;;;;;;;;2050193;28;20025;-95
2023/10/05 01:30:53;;;;;;;;;;;;;;;;;;2058191;28;19972;-95
2023/10/05 01:31:53;;;;;;;;;;;;;;;;;;2059546;28;19922;-95
2023/10/05 01:32:54;;;;;;;;;;;;;;;;;;2050181;28;19915;-95
2023/10/05 01:33:54;;;;;;;;;;;;;;;;;;2050182;28;19918;-95
2023/10/05 01:34:56;;;;;;;;;;;;;;;;;;2050251;28;19914;-95
2023/10/05 01:35:56;;;;;;;;;;;;;;;;;;2050202;28;20366;-95
2023/10/05 01:36:58;;;;;;;;;;;;;;;;;;2058278;28;19914;-95
2023/10/05 01:37:59;;;;;;;;;;;;;;;;;;2058143;28;19941;-95
2023/10/05 01:39:07;;;;;;;;;;;;;;;;;;2050120;28;19914;-95
2023/10/05 01:40:12;;;;;;;;;;;;;;;;;;2051158;28;20323;-95
2023/10/05 01:41:20;;;;;;;;;;;;;;;;;;2058208;28;19914;-95
2023/10/05 01:42:21;;;;;;;;;;;;;;;;;;2051032;28;19958;-94
2023/10/05 01:43:22;;;;;;;;;;;;;;;;;;2050089;28;19973;-95
2023/10/05 01:44:25;;;;;;;;;;;;;;;;;;2042444;29;20116;-94
2023/10/05 01:45:28;;;;;;;;;;;;;;;;;;2041627;28;20390;-94
2023/10/05 01:46:31;;;;;;;;;;;;;;;;;;2058075;28;19976;-96
2023/10/05 01:47:31;;;;;;;;;;;;;;;;;;2050201;28;19925;-94
2023/10/05 01:48:32;;;;;;;;;;;;;;;;;;2050071;28;19938;-96
2023/10/05 01:49:32;;;;;;;;;;;;;;;;;;2058023;28;19992;-95
2023/10/05 01:50:32;;;;;;;;;;;;;;;;;;2058467;28;20046;-96
2023/10/05 01:51:33;;;;;;;;;;;;;;;;;;2050274;28;20359;-95
2023/10/05 01:52:35;;;;;;;;;;;;;;;;;;2049992;28;19918;-96
2023/10/05 01:53:36;;;;;;;;;;;;;;;;;;2050349;28;19937;-95
2023/10/05 01:54:38;;;;;;;;;;;;;;;;;;2051842;28;20389;-95
2023/10/05 01:55:39;;;;;;;;;;;;;;;;;;2068819;28;19957;-96
2023/10/05 01:56:43;;;;;;;;;;;;;;;;;;2068620;28;19906;-94
2023/10/05 01:57:44;;;;;;;;;;;;;;;;;;2060830;28;19910;-94
2023/10/05 01:58:46;;;;;;;;;;;;;;;;;;2068598;28;19910;-96
2023/10/05 01:59:46;;;;;;;;;;;;;;;;;;2056989;28;20432;-95
2023/10/05 02:00:47;;;;;;;;;;;;;;;;;;2050906;28;19925;-95
2023/10/05 02:01:47;;;;;;;;;;;;;;;;;;2050398;28;19981;-96
2023/10/05 02:02:48;;;;;;;;;;;;;;;;;;2058293;28;19925;-95
2023/10/05 02:03:54;;;;;;;;;;;;;;;;;;2050452;28;19922;-95
2023/10/05 02:04:54;;;;;;;;;;;;;;;;;;2050752;28;19918;-93
2023/10/05 02:06:04;;;;;;;;;;;;;;;;;;2050307;28;19918;-95
2023/10/05 02:07:05;;;;;;;;;;;;;;;;;;2059529;28;19918;-95
2023/10/05 02:08:05;;;;;;;;;;;;;;;;;;2058146;28;19965;-96
2023/10/05 02:09:07;;;;;;;;;;;;;;;;;;2049875;28;19949;-95
2023/10/05 02:10:11;;;;;;;;;;;;;;;;;;2058013;28;19973;-95
2023/10/05 02:11:18;;;;;;;;;;;;;;;;;;2050483;28;19926;-95
2023/10/05 02:12:19;;;;;;;;;;;;;;;;;;2051109;28;20505;-95
2023/10/05 02:13:19;;;;;;;;;;;;;;;;;;2058663;28;19918;-95
2023/10/05 02:14:21;;;;;;;;;;;;;;;;;;2058698;28;20373;-94
2023/10/05 02:15:28;;;;;;;;;;;;;;;;;;2054254;28;19918;-95
2023/10/05 02:16:28;;;;;;;;;;;;;;;;;;2054771;28;19910;-93
2023/10/05 02:17:29;;;;;;;;;;;;;;;;;;2060590;28;19910;-94
2023/10/05 02:18:34;;;;;;;;;;;;;;;;;;2057747;28;19957;-94
2023/10/05 02:19:37;;;;;;;;;;;;;;;;;;2050612;28;19933;-96
2023/10/05 02:20:41;;;;;;;;;;;;;;;;;;2050457;28;19910;-94
2023/10/05 02:21:42;;;;;;;;;;;;;;;;;;2057923;28;20064;-96
2023/10/05 02:22:47;;;;;;;;;;;;;;;;;;2049930;28;19922;-94
2023/10/05 02:23:51;;;;;;;;;;;;;;;;;;2051547;28;19922;-94
2023/10/05 02:24:54;;;;;;;;;;;;;;;;;;2057829;28;19961;-95
2023/10/05 02:26:03;;;;;;;;;;;;;;;;;;2050104;28;19957;-94
2023/10/05 02:27:09;;;;;;;;;;;;;;;;;;2049922;28;19922;-89
2023/10/05 02:28:09;;;;;;;;;;;;;;;;;;2056361;28;19973;-90
2023/10/05 02:29:15;;;;;;;;;;;;;;;;;;2048590;28;19987;-90
2023/10/05 02:30:16;;;;;;;;;;;;;;;;;;2057391;28;19949;-89
2023/10/05 02:31:20;;;;;;;;;;;;;;;;;;2056466;28;20005;-90
2023/10/05 02:32:21;;;;;;;;;;;;;;;;;;2056973;28;19924;-90
2023/10/05 02:33:26;;;;;;;;;;;;;;;;;;2049119;28;19978;-89
2023/10/05 02:34:59;;;;;;;;;;;;;;;;;;2049052;28;19914;-89
2023/10/05 02:36:13;;;;;;;;;;;;;;;;;;2056481;28;19918;-89
2023/10/05 02:37:19;;;;;;;;;;;;;;;;;;2058506;28;19922;-90
2023/10/05 02:38:21;;;;;;;;;;;;;;;;;;2065454;28;19921;-89
2023/10/05 02:39:22;;;;;;;;;;;;;;;;;;2065362;28;20527;-90
2023/10/05 02:40:35;;;;;;;;;;;;;;;;;;2065150;28;20031;-89
2023/10/05 02:41:38;;;;;;;;;;;;;;;;;;2067134;28;19916;-89
2023/10/05 02:42:39;;;;;;;;;;;;;;;;;;2065176;28;19913;-89
2023/10/05 02:43:39;;;;;;;;;;;;;;;;;;2065200;28;20294;-90
2023/10/05 02:44:40;;;;;;;;;;;;;;;;;;2056469;28;19945;-90
2023/10/05 02:45:42;;;;;;;;;;;;;;;;;;2056543;28;20065;-89
2023/10/05 02:46:42;;;;;;;;;;;;;;;;;;2065152;28;19918;-89
2023/10/05 02:47:43;;;;;;;;;;;;;;;;;;2056171;28;19918;-89
2023/10/05 02:48:43;;;;;;;;;;;;;;;;;;2048447;28;19918;-89
2023/10/05 02:49:44;;;;;;;;;;;;;;;;;;2048338;28;19925;-89
2023/10/05 02:50:46;;;;;;;;;;;;;;;;;;2056261;28;19918;-89
2023/10/05 02:51:46;;;;;;;;;;;;;;;;;;2056545;28;20851;-89
2023/10/05 02:52:46;;;;;;;;;;;;;;;;;;1699007;28;10406411;-89
2023/10/05 02:53:47;;;;;;;;;;;;;;;;;;2048299;28;20008;-89
2023/10/05 02:54:47;;;;;;;;;;;;;;;;;;2048327;28;20483;-90
2023/10/05 02:55:54;;;;;;;;;;;;;;;;;;2056264;28;19924;-90
2023/10/05 02:56:54;;;;;;;;;;;;;;;;;;2048764;28;20320;-89
2023/10/05 02:57:54;;;;;;;;;;;;;;;;;;2056359;28;19933;-90
2023/10/05 02:58:56;;;;;;;;;;;;;;;;;;2056274;28;19953;-90
2023/10/05 02:59:57;;;;;;;;;;;;;;;;;;2056739;28;20016;-90
2023/10/05 03:00:58;;;;;;;;;;;;;;;;;;2065178;28;19918;-88
2023/10/05 03:02:06;;;;;;;;;;;;;;;;;;2056406;28;19956;-90
2023/10/05 03:03:07;;;;;;;;;;;;;;;;;;2057717;28;19918;-90
2023/10/05 03:05:11;;;;;;;;;;;;;;;;;;2056833;28;19918;-90
2023/10/05 03:06:11;;;;;;;;;;;;;;;;;;2056141;28;19937;-89
2023/10/05 03:07:15;;;;;;;;;;;;;;;;;;2048163;28;20038;-90
2023/10/05 03:08:15;;;;;;;;;;;;;;;;;;2056733;28;20489;-89
2023/10/05 03:09:18;;;;;;;;;;;;;;;;;;2064859;28;19921;-89
2023/10/05 03:10:23;;;;;;;;;;;;;;;;;;2065033;28;19918;-89
2023/10/05 03:11:25;;;;;;;;;;;;;;;;;;2056023;28;20409;-89
2023/10/05 03:12:25;;;;;;;;;;;;;;;;;;2048259;28;19941;-89
2023/10/05 03:13:27;;;;;;;;;;;;;;;;;;2056070;28;20401;-89
2023/10/05 03:14:27;;;;;;;;;;;;;;;;;;2067300;28;19914;-90
2023/10/05 03:15:28;;;;;;;;;;;;;;;;;;2055998;28;20370;-89
2023/10/05 03:16:29;;;;;;;;;;;;;;;;;;2056171;28;20267;-89
2023/10/05 03:17:31;;;;;;;;;;;;;;;;;;2047813;28;19920;-88
2023/10/05 03:18:37;;;;;;;;;;;;;;;;;;2056116;28;19917;-89
2023/10/05 03:19:38;;;;;;;;;;;;;;;;;;2048685;28;19911;-90
2023/10/05 03:20:40;;;;;;;;;;;;;;;;;;2056227;28;20398;-88
2023/10/05 03:21:40;;;;;;;;;;;;;;;;;;2055831;28;19964;-90
2023/10/05 03:22:41;;;;;;;;;;;;;;;;;;2048004;28;20002;-90
2023/10/05 03:23:41;;;;;;;;;;;;;;;;;;2055795;28;20350;-90
2023/10/05 03:24:44;;;;;;;;;;;;;;;;;;2064605;28;19960;-90
2023/10/05 03:25:47;;;;;;;;;;;;;;;;;;2055880;28;19976;-90
2023/10/05 03:26:47;;;;;;;;;;;;;;;;;;2048215;28;19918;-90
2023/10/05 03:27:48;;;;;;;;;;;;;;;;;;2047963;28;19961;-89
2023/10/05 03:28:49;;;;;;;;;;;;;;;;;;2047986;28;20328;-90
2023/10/05 03:29:52;;;;;;;;;;;;;;;;;;2055788;28;19957;-90
2023/10/05 03:30:53;;;;;;;;;;;;;;;;;;2055833;28;19917;-88
2023/10/05 03:31:55;;;;;;;;;;;;;;;;;;2047806;28;19925;-90
2023/10/05 03:33:00;;;;;;;;;;;;;;;;;;2055850;28;20018;-88
2023/10/05 03:34:00;;;;;;;;;;;;;;;;;;2056562;28;20009;-89
2023/10/05 03:35:01;;;;;;;;;;;;;;;;;;2055901;28;19965;-87
2023/10/05 03:36:06;;;;;;;;;;;;;;;;;;2047917;28;19926;-90
2023/10/05 03:37:13;;;;;;;;;;;;;;;;;;2048586;28;19918;-87
2023/10/05 03:38:19;;;;;;;;;;;;;;;;;;2056889;28;19958;-90
2023/10/05 03:39:22;;;;;;;;;;;;;;;;;;2064779;28;20392;-90
2023/10/05 03:40:25;;;;;;;;;;;;;;;;;;2055864;28;20386;-88
2023/10/05 03:41:28;;;;;;;;;;;;;;;;;;2056153;28;19910;-87
2023/10/05 03:42:28;;;;;;;;;;;;;;;;;;2064528;28;19964;-88
2023/10/05 03:43:31;;;;;;;;;;;;;;;;;;2055895;28;20366;-87
2023/10/05 03:44:31;;;;;;;;;;;;;;;;;;2056222;28;20295;-89
2023/10/05 03:45:32;;;;;;;;;;;;;;;;;;2055765;28;20020;-90
2023/10/05 03:46:32;;;;;;;;;;;;;;;;;;2047742;28;19941;-90
2023/10/05 03:47:39;;;;;;;;;;;;;;;;;;2047657;28;19965;-90
2023/10/05 03:48:39;;;;;;;;;;;;;;;;;;2048586;28;20053;-89
2023/10/05 03:49:56;;;;;;;;;;;;;;;;;;2047805;28;19985;-90
2023/10/05 03:50:56;;;;;;;;;;;;;;;;;;2058272;28;20004;-89
2023/10/05 03:51:56;;;;;;;;;;;;;;;;;;2055794;28;19942;-90
2023/10/05 03:52:57;;;;;;;;;;;;;;;;;;2056139;28;20376;-90
2023/10/05 03:53:57;;;;;;;;;;;;;;;;;;2055701;28;19941;-89
2023/10/05 03:55:01;;;;;;;;;;;;;;;;;;2047780;28;19918;-90
2023/10/05 03:56:01;;;;;;;;;;;;;;;;;;2056196;28;20309;-90
2023/10/05 03:57:10;;;;;;;;;;;;;;;;;;2055799;28;19918;-90
2023/10/05 03:58:10;;;;;;;;;;;;;;;;;;2048834;28;19918;-89
2023/10/05 03:59:11;;;;;;;;;;;;;;;;;;2055894;28;19968;-90
2023/10/05 04:00:31;;;;;;;;;;;;;;;;;;2055806;28;19953;-90
2023/10/05 04:01:31;;;;;;;;;;;;;;;;;;2050290;28;20063;-89
2023/10/05 04:02:33;;;;;;;;;;;;;;;;;;2047837;28;19914;-90
2023/10/05 04:03:34;;;;;;;;;;;;;;;;;;2048530;28;20365;-89
2023/10/05 04:04:36;;;;;;;;;;;;;;;;;;2048617;28;20160;-89
2023/10/05 04:05:39;;;;;;;;;;;;;;;;;;2049160;28;19911;-89
2023/10/05 04:06:41;;;;;;;;;;;;;;;;;;2056155;28;19913;-89
2023/10/05 04:07:42;;;;;;;;;;;;;;;;;;2055711;28;19926;-90
2023/10/05 04:08:49;;;;;;;;;;;;;;;;;;2055179;28;19996;-90
2023/10/05 04:09:52;;;;;;;;;;;;;;;;;;2055662;28;19961;-89
2023/10/05 04:10:54;;;;;;;;;;;;;;;;;;2055835;28;19918;-90
2023/10/05 04:11:55;;;;;;;;;;;;;;;;;;2055836;28;20009;-91
2023/10/05 04:12:56;;;;;;;;;;;;;;;;;;2048212;28;19968;-90
2023/10/05 04:13:57;;;;;;;;;;;;;;;;;;2047818;28;19922;-90
2023/10/05 04:14:57;;;;;;;;;;;;;;;;;;2047575;28;19918;-90
2023/10/05 04:15:59;;;;;;;;;;;;;;;;;;2056579;28;19922;-88
2023/10/05 04:17:07;;;;;;;;;;;;;;;;;;2065370;28;19952;-88
2023/10/05 04:18:11;;;;;;;;;;;;;;;;;;2065987;28;19925;-87
2023/10/05 04:19:11;;;;;;;;;;;;;;;;;;2064476;28;19972;-90
2023/10/05 04:20:22;;;;;;;;;;;;;;;;;;2064686;28;19918;-90
2023/10/05 04:21:22;;;;;;;;;;;;;;;;;;2055622;28;19921;-90
2023/10/05 04:22:24;;;;;;;;;;;;;;;;;;2047651;28;19910;-90
2023/10/05 04:23:28;;;;;;;;;;;;;;;;;;2055904;28;19925;-89
2023/10/05 04:24:32;;;;;;;;;;;;;;;;;;2056640;28;19960;-90
2023/10/05 04:25:33;;;;;;;;;;;;;;;;;;2065189;28;19916;-88
2023/10/05 04:26:34;;;;;;;;;;;;;;;;;;2064661;28;20392;-90
2023/10/05 04:27:38;;;;;;;;;;;;;;;;;;2055875;28;19906;-90
2023/10/05 04:28:41;;;;;;;;;;;;;;;;;;2056344;28;20384;-88
2023/10/05 04:29:42;;;;;;;;;;;;;;;;;;2065124;28;19928;-89
2023/10/05 04:30:42;;;;;;;;;;;;;;;;;;2055857;28;20457;-90
2023/10/05 04:31:48;;;;;;;;;;;;;;;;;;2047877;28;20398;-89
2023/10/05 04:32:48;;;;;;;;;;;;;;;;;;2055827;28;19925;-89
2023/10/05 04:33:50;;;;;;;;;;;;;;;;;;2047866;28;19918;-89
2023/10/05 04:34:51;;;;;;;;;;;;;;;;;;2047966;28;19918;-90
2023/10/05 04:35:52;;;;;;;;;;;;;;;;;;2055834;28;19976;-90
2023/10/05 04:36:54;;;;;;;;;;;;;;;;;;2056284;28;19918;-90
2023/10/05 04:37:56;;;;;;;;;;;;;;;;;;2056188;28;20009;-89
2023/10/05 04:38:56;;;;;;;;;;;;;;;;;;2055788;28;19926;-89
2023/10/05 04:39:59;;;;;;;;;;;;;;;;;;2048618;28;19961;-88
2023/10/05 04:40:59;;;;;;;;;;;;;;;;;;2056744;28;19922;-88
2023/10/05 04:42:11;;;;;;;;;;;;;;;;;;2056235;28;20075;-89
2023/10/05 04:43:12;;;;;;;;;;;;;;;;;;2049324;28;20382;-89
2023/10/05 04:44:12;;;;;;;;;;;;;;;;;;2056414;28;19949;-88
2023/10/05 04:45:14;;;;;;;;;;;;;;;;;;2055987;28;19961;-90
2023/10/05 04:46:18;;;;;;;;;;;;;;;;;;2048213;28;20421;-87
2023/10/05 04:47:18;;;;;;;;;;;;;;;;;;2048608;28;19966;-89
2023/10/05 04:48:19;;;;;;;;;;;;;;;;;;2056023;28;19918;-89
2023/10/05 04:49:20;;;;;;;;;;;;;;;;;;2056117;28;19918;-88
2023/10/05 04:50:20;;;;;;;;;;;;;;;;;;2056079;28;19977;-89
2023/10/05 04:51:28;;;;;;;;;;;;;;;;;;2047977;29;19950;-89
2023/10/05 04:52:33;;;;;;;;;;;;;;;;;;2048987;28;20322;-89
2023/10/05 04:53:38;;;;;;;;;;;;;;;;;;2048635;28;19914;-88
2023/10/05 04:54:40;;;;;;;;;;;;;;;;;;2056712;28;19906;-90
2023/10/05 04:55:45;;;;;;;;;;;;;;;;;;2065154;28;19986;-87
2023/10/05 04:57:55;;;;;;;;;;;;;;;;;;2064568;28;19925;-89
2023/10/05 05:01:46;;;;;;;;;;;;;;;;;;2064611;28;19996;-89
2023/10/05 05:03:16;;;;;;;;;;;;;;;;;;2055792;28;19918;-89
2023/10/05 05:05:52;;;;;;;;;;;;;;;;;;2058192;28;20397;-88
2023/10/05 05:06:58;;;;;;;;;;;;;;;;;;2064486;28;19918;-89
2023/10/05 05:07:59;;;;;;;;;;;;;;;;;;2055567;28;19918;-88
2023/10/05 05:09:00;;;;;;;;;;;;;;;;;;2047979;28;19925;-90
2023/10/05 05:10:03;;;;;;;;;;;;;;;;;;2055723;28;19984;-89
2023/10/05 05:11:03;;;;;;;;;;;;;;;;;;2056152;28;19945;-88
2023/10/05 05:12:16;;;;;;;;;;;;;;;;;;2056012;28;19918;-90
2023/10/05 05:13:17;;;;;;;;;;;;;;;;;;2057473;28;19918;-89
2023/10/05 05:14:18;;;;;;;;;;;;;;;;;;2064746;28;19918;-91
2023/10/05 05:15:18;;;;;;;;;;;;;;;;;;2064796;28;20547;-90
2023/10/05 05:16:19;;;;;;;;;;;;;;;;;;2055815;28;20420;-89
2023/10/05 05:17:19;;;;;;;;;;;;;;;;;;2047821;28;20024;-90
2023/10/05 05:18:21;;;;;;;;;;;;;;;;;;2055580;28;19961;-90
2023/10/05 05:19:21;;;;;;;;;;;;;;;;;;2055829;28;19922;-90
2023/10/05 05:20:21;;;;;;;;;;;;;;;;;;2066022;28;19918;-89
2023/10/05 05:21:21;;;;;;;;;;;;;;;;;;2057024;28;19918;-90
2023/10/05 05:22:22;;;;;;;;;;;;;;;;;;2049138;28;19910;-89
2023/10/05 05:23:22;;;;;;;;;;;;;;;;;;2048950;28;20445;-90
2023/10/05 05:24:23;;;;;;;;;;;;;;;;;;2057038;28;19910;-89
2023/10/05 05:25:23;;;;;;;;;;;;;;;;;;2056978;28;20251;-89
2023/10/05 05:26:24;;;;;;;;;;;;;;;;;;2049129;28;19983;-89
2023/10/05 05:27:24;;;;;;;;;;;;;;;;;;2048974;28;19919;-90
2023/10/05 05:28:24;;;;;;;;;;;;;;;;;;2057184;28;19952;-89
2023/10/05 05:29:25;;;;;;;;;;;;;;;;;;2065974;28;20234;-89
2023/10/05 05:30:25;;;;;;;;;;;;;;;;;;2065704;28;19909;-90
2023/10/05 05:31:25;;;;;;;;;;;;;;;;;;2057154;28;19933;-88
2023/10/05 05:32:25;;;;;;;;;;;;;;;;;;2057355;28;19910;-88
2023/10/05 05:33:26;;;;;;;;;;;;;;;;;;2065722;28;20397;-88
2023/10/05 05:34:26;;;;;;;;;;;;;;;;;;2065506;28;19909;-89
2023/10/05 05:35:27;;;;;;;;;;;;;;;;;;2056723;28;19910;-89
2023/10/05 05:36:28;;;;;;;;;;;;;;;;;;2057078;28;20433;-89
2023/10/05 05:37:28;;;;;;;;;;;;;;;;;;2056838;28;19917;-88
2023/10/05 05:38:28;;;;;;;;;;;;;;;;;;2056765;28;20013;-89
2023/10/05 05:39:32;;;;;;;;;;;;;;;;;;2065545;28;19909;-89
2023/10/05 05:40:36;;;;;;;;;;;;;;;;;;2056844;28;19909;-89
2023/10/05 05:41:37;;;;;;;;;;;;;;;;;;2049188;28;19917;-90
2023/10/05 05:42:37;;;;;;;;;;;;;;;;;;2057232;28;19902;-89
2023/10/05 05:43:39;;;;;;;;;;;;;;;;;;2057079;28;19914;-90
2023/10/05 05:44:43;;;;;;;;;;;;;;;;;;2057070;28;20251;-89
2023/10/05 05:45:43;;;;;;;;;;;;;;;;;;2056752;28;20407;-90
2023/10/05 05:46:44;;;;;;;;;;;;;;;;;;1875599;28;5002149;-90
2023/10/05 05:47:45;;;;;;;;;;;;;;;;;;2048801;29;19918;-89
2023/10/05 05:48:48;;;;;;;;;;;;;;;;;;2059793;28;19929;-89
2023/10/05 05:49:50;;;;;;;;;;;;;;;;;;2056938;28;19950;-89
2023/10/05 05:50:53;;;;;;;;;;;;;;;;;;2049103;28;20016;-90
2023/10/05 05:51:57;;;;;;;;;;;;;;;;;;2049389;28;19950;-88
2023/10/05 05:52:58;;;;;;;;;;;;;;;;;;2049774;28;19918;-89
2023/10/05 05:53:58;;;;;;;;;;;;;;;;;;2049001;28;20453;-90
2023/10/05 05:55:06;;;;;;;;;;;;;;;;;;2056765;28;19918;-89
2023/10/05 05:56:06;;;;;;;;;;;;;;;;;;2056644;28;19918;-89
2023/10/05 05:57:07;;;;;;;;;;;;;;;;;;2048683;28;20330;-89
2023/10/05 05:58:14;;;;;;;;;;;;;;;;;;1772311;28;10001501;-90
2023/10/05 05:59:14;;;;;;;;;;;;;;;;;;2057809;28;19954;-89
2023/10/05 06:00:17;;;;;;;;;;;;;;;;;;2065591;28;19925;-90
2023/10/05 06:01:19;;;;;;;;;;;;;;;;;;2056918;28;19917;-90
2023/10/05 06:02:20;;;;;;;;;;;;;;;;;;2053639;28;19941;-90
2023/10/05 06:03:20;;;;;;;;;;;;;;;;;;2054620;28;19921;-89
2023/10/05 06:04:21;;;;;;;;;;;;;;;;;;2065635;28;19918;-90
2023/10/05 06:05:22;;;;;;;;;;;;;;;;;;2065536;28;19917;-90
2023/10/05 06:06:22;;;;;;;;;;;;;;;;;;2065487;28;19917;-90
2023/10/05 06:07:25;;;;;;;;;;;;;;;;;;2056781;28;20341;-90
2023/10/05 06:08:26;;;;;;;;;;;;;;;;;;2048297;28;19957;-90
2023/10/05 06:09:27;;;;;;;;;;;;;;;;;;2048842;28;20310;-90
2023/10/05 06:10:28;;;;;;;;;;;;;;;;;;2048594;28;19945;-90
2023/10/05 06:11:28;;;;;;;;;;;;;;;;;;2056788;28;19910;-90
2023/10/05 06:12:29;;;;;;;;;;;;;;;;;;2065271;28;20385;-88
2023/10/05 06:13:29;;;;;;;;;;;;;;;;;;2056583;28;19981;-90
2023/10/05 06:14:34;;;;;;;;;;;;;;;;;;2048615;28;19910;-91
2023/10/05 06:15:37;;;;;;;;;;;;;;;;;;2049158;28;20396;-90
2023/10/05 06:16:37;;;;;;;;;;;;;;;;;;2056970;28;19906;-90
2023/10/05 06:17:38;;;;;;;;;;;;;;;;;;2065273;28;19910;-90
2023/10/05 06:18:38;;;;;;;;;;;;;;;;;;2065349;28;19949;-89
2023/10/05 06:19:39;;;;;;;;;;;;;;;;;;2056527;28;20385;-90
2023/10/05 06:20:40;;;;;;;;;;;;;;;;;;2056618;28;19968;-90
2023/10/05 06:21:42;;;;;;;;;;;;;;;;;;2065476;28;19996;-89
2023/10/05 06:22:45;;;;;;;;;;;;;;;;;;2065275;28;19944;-90
2023/10/05 06:23:45;;;;;;;;;;;;;;;;;;2056450;28;19952;-90
2023/10/05 06:24:46;;;;;;;;;;;;;;;;;;2048531;28;19961;-90
2023/10/05 06:25:48;;;;;;;;;;;;;;;;;;2048505;28;19993;-90
2023/10/05 06:26:48;;;;;;;;;;;;;;;;;;2056623;28;20405;-90
2023/10/05 06:27:48;;;;;;;;;;;;;;;;;;2048844;28;19918;-89
2023/10/05 06:28:49;;;;;;;;;;;;;;;;;;2057662;28;19939;-89
2023/10/05 06:29:49;;;;;;;;;;;;;;;;;;2066304;28;19917;-89
2023/10/05 06:30:50;;;;;;;;;;;;;;;;;;2056895;28;20071;-89
2023/10/05 06:31:50;;;;;;;;;;;;;;;;;;2056066;28;19924;-89
2023/10/05 06:32:53;;;;;;;;;;;;;;;;;;2056564;28;19925;-89
2023/10/05 06:33:53;;;;;;;;;;;;;;;;;;2056414;28;19918;-89
2023/10/05 06:34:53;;;;;;;;;;;;;;;;;;2056586;28;19918;-89
2023/10/05 06:35:54;;;;;;;;;;;;;;;;;;2056391;28;19961;-89
2023/10/05 06:36:57;;;;;;;;;;;;;;;;;;2059400;28;20428;-89
2023/10/05 06:37:57;;;;;;;;;;;;;;;;;;2065162;28;19917;-89
2023/10/05 06:38:58;;;;;;;;;;;;;;;;;;2065297;28;20017;-89
2023/10/05 06:39:58;;;;;;;;;;;;;;;;;;2056468;28;19932;-89
2023/10/05 06:40:59;;;;;;;;;;;;;;;;;;2056542;28;20037;-88
2023/10/05 06:41:59;;;;;;;;;;;;;;;;;;2056663;28;20413;-89
2023/10/05 06:43:00;;;;;;;;;;;;;;;;;;2056556;28;19925;-90
2023/10/05 06:44:02;;;;;;;;;;;;;;;;;;2065012;28;19921;-89
2023/10/05 06:45:03;;;;;;;;;;;;;;;;;;2065281;28;19922;-89
2023/10/05 06:46:09;;;;;;;;;;;;;;;;;;2065295;28;19921;-89
2023/10/05 06:47:18;;;;;;;;;;;;;;;;;;2065257;28;19940;-89
2023/10/05 06:48:18;;;;;;;;;;;;;;;;;;2056500;28;19918;-89
2023/10/05 06:49:19;;;;;;;;;;;;;;;;;;2056411;28;20411;-89
2023/10/05 06:50:21;;;;;;;;;;;;;;;;;;2065283;28;19918;-88
2023/10/05 06:51:28;;;;;;;;;;;;;;;;;;1706684;28;10392299;-88
2023/10/05 06:52:29;;;;;;;;;;;;;;;;;;2065205;28;19921;-89
2023/10/05 06:53:29;;;;;;;;;;;;;;;;;;2064951;28;19910;-89
2023/10/05 06:54:30;;;;;;;;;;;;;;;;;;2065063;28;20435;-89
2023/10/05 06:55:30;;;;;;;;;;;;;;;;;;2065033;28;19909;-89
2023/10/05 06:56:30;;;;;;;;;;;;;;;;;;2064829;28;19916;-89
2023/10/05 06:57:31;;;;;;;;;;;;;;;;;;2065079;28;19910;-89
2023/10/05 06:58:31;;;;;;;;;;;;;;;;;;2056114;28;20393;-89
2023/10/05 06:59:31;;;;;;;;;;;;;;;;;;2056448;28;19984;-89
2023/10/05 07:00:32;;;;;;;;;;;;;;;;;;2056098;28;19916;-89
2023/10/05 07:01:34;;;;;;;;;;;;;;;;;;2056229;28;19910;-89
2023/10/05 07:02:35;;;;;;;;;;;;;;;;;;2056058;28;19961;-89
2023/10/05 07:03:36;;;;;;;;;;;;;;;;;;2056280;28;19914;-89
2023/10/05 07:04:36;;;;;;;;;;;;;;;;;;2064977;28;19925;-89
2023/10/05 07:05:36;;;;;;;;;;;;;;;;;;2064956;28;19925;-89
2023/10/05 07:06:36;;;;;;;;;;;;;;;;;;2056119;28;19968;-90
2023/10/05 07:07:37;;;;;;;;;;;;;;;;;;2048404;28;20495;-90
2023/10/05 07:08:37;;;;;;;;;;;;;;;;;;2056183;28;20004;-90
2023/10/05 07:09:38;;;;;;;;;;;;;;;;;;2056325;28;19999;-90
2023/10/05 07:10:38;;;;;;;;;;;;;;;;;;2056235;28;20480;-89
2023/10/05 07:11:38;;;;;;;;;;;;;;;;;;2048323;28;20000;-90
2023/10/05 07:12:38;;;;;;;;;;;;;;;;;;2056049;28;19933;-90
2023/10/05 07:13:39;;;;;;;;;;;;;;;;;;2056183;28;19916;-90
2023/10/05 07:14:40;;;;;;;;;;;;;;;;;;2056095;28;20341;-90
2023/10/05 07:15:40;;;;;;;;;;;;;;;;;;2056124;28;20382;-90
2023/10/05 07:16:40;;;;;;;;;;;;;;;;;;2048084;28;19985;-90